Search for airport 
image banner adimage banner adimage banner ad
image banner ad

KTSP - Tehachapi Muni

Located in Tehachapi, United States

ICAO - TSP, IATA -

Data provided by Airmate  

General information

Coordinates: N35°8'6" W118°26'21"
Elevation is 4001 feet MSL.
Magnetic variation is 14° East
View others Airports in California

Operational data

Special qualification required
Current time UTC:
Current local time:
Weather
METAR: KTSP 141235Z AUTO 28003KT 9SM CLR 13/10 A3011 RMK AO2
View NOTAMs / SUP AIP / TFR affecting this airport [VIEW]
Communications frequencies: [VIEW]

Runways:

RWY identifierQFULength (ft)Width (ft)SurfaceLDA (ft)
11124°404075ASPH
29304°404075ASPH

Airport contact information

Address: Tehachapi United States

Satellite view of KTSP